• Join FlightAware (Why Join?)
  • Login
  • US Flag 
07:02PM EDT


 

Airport Tracker/Info


-or-


 

Live Flight TrackerFlight Track Log ✈ SWA127 ✈ 23-Apr-2013 ✈ KHOU - KHRL

Flight Track Log - Related Links

Times and Time Zones

All times are in EDT time to prevent confusion due to time zone crossing. See the SWA127 flight status page for this flight to view local times or setup timezone preferences in your user account.

Time Position Orientation Groundspeed Altitude Reporting Facility
EDT Latitude Longitude Course Direction KTS MPH feet Rate Location/Type
11:35AM 29.6333 -95.2653 148° Southeast 150 173 800  Level Houston Center
11:36AM 29.5814 -95.2283 148° Southeast 217 250 3,700 2,100 Climbing Houston Center
11:36AM 29.5603 -95.2294 183° South 220 253 4,500 2,820 Climbing Houston Center
11:37AM 29.5131 -95.2392 190° South 266 306 6,600 2,760 Climbing Houston Center
11:37AM 29.4939 -95.2489 204° Southwest 247 284 7,400 2,700 Climbing Houston Center
11:38AM 29.4247 -95.2803 202° Southwest 267 307 10,600 2,760 Climbing Houston Center
11:40AM 29.3292 -95.3264 203° Southwest 310 357 13,200 2,340 Climbing Houston Center
11:41AM 29.2419 -95.3789 208° Southwest 350 403 15,500 2,460 Climbing Houston Center
11:42AM 29.1644 -95.4528 220° Southwest 361 415 18,400 2,280 Climbing Houston Center
11:43AM 29.0847 -95.5269 219° Southwest 368 423 20,300 1,980 Climbing Houston Center
11:44AM 28.9992 -95.6044 218° Southwest 388 447 22,600 1,980 Climbing Houston Center
11:45AM 28.9128 -95.6822 218° Southwest 394 453 24,500 1,860 Climbing Houston Center
11:46AM 28.7978 -95.7706 214° Southwest 413 475 26,500 1,740 Climbing Houston Center
11:47AM 28.7011 -95.8461 214° Southwest 421 484 28,200 1,920 Climbing Houston Center
11:48AM 28.6061 -95.9200 214° Southwest 415 478 30,500 1,740 Climbing Houston Center
11:49AM 28.5044 -95.9983 214° Southwest 398 458 31,900 720 Climbing Houston Center
11:50AM 28.4142 -96.0689 215° Southwest 394 453 32,000  Climbing Houston Center
11:51AM 28.3231 -96.1394 214° Southwest 395 455 32,000  Level Houston Center
11:52AM 28.2311 -96.2106 214° Southwest 397 457 32,000  Level Houston Center
11:53AM 28.1400 -96.2794 214° Southwest 395 455 32,000  Level Houston Center
11:54AM 28.0481 -96.3486 214° Southwest 395 455 32,000  Level Houston Center
11:55AM 27.9392 -96.4333 215° Southwest 394 453 32,000  Level Houston Center
11:56AM 27.8478 -96.5022 214° Southwest 394 453 32,000  Level Houston Center
11:57AM 27.7567 -96.5711 214° Southwest 394 453 32,000  Level Houston Center
11:58AM 27.6653 -96.6422 215° Southwest 398 458 32,000 -480 Level Houston Center
11:59AM 27.5744 -96.7108 214° Southwest 394 453 31,100 -1,680 Descending Houston Center
12:00PM 27.4864 -96.7769 214° Southwest 386 444 28,600 -2,460 Descending Houston Center
12:01PM 27.3950 -96.8464 214° Southwest 375 432 26,100 -2,400 Descending Houston Center
12:02PM 27.3111 -96.9089 214° Southwest 366 421 23,700 -2,520 Descending Houston Center
12:03PM 27.2122 -96.9822 213° Southwest 357 411 20,900 -2,460 Descending Houston Center
12:04PM 27.1181 -97.0556 215° Southwest 349 402 18,400 -1,680 Descending Houston Center
12:05PM 27.0675 -97.0931 213° Southwest 344 396 17,800 -1,320 Descending Houston Center
12:06PM 26.9761 -97.1600 213° Southwest 336 387 16,000 -900 Descending Houston Center
12:07PM 26.9044 -97.2144 214° Southwest 308 354 16,000 -780 Level Houston Center
12:08PM 26.8386 -97.2683 216° Southwest 292 336 14,500 -1,980 Descending Houston Center
12:10PM 26.7625 -97.3464 222° Southwest 306 352 11,600 -2,040 Descending Houston Center
12:10PM 26.7178 -97.3928 223° Southwest 311 358 10,600 -1,380 Descending Houston Center
12:11PM 26.7011 -97.4114 225° Southwest 302 348 10,200 -1,440 Descending Houston Center
12:11PM 26.6594 -97.4547 223° Southwest 290 334 9,200 -1,560 Descending Houston Center
12:12PM 26.6389 -97.4758 223° Southwest 284 327 8,600 -1,620 Descending Houston Center
12:12PM 26.5989 -97.5167 222° Southwest 272 313 7,600 -1,500 Descending Houston Center
12:13PM 26.5831 -97.5331 223° Southwest 275 316 7,100 -1,440 Descending Houston Center
12:13PM 26.5536 -97.5650 224° Southwest 267 307 6,300 -1,380 Descending Houston Center
12:14PM 26.5261 -97.5922 222° Southwest 262 302 5,700 -1,260 Descending Houston Center
12:14PM 26.4950 -97.6267 225° Southwest 250 288 4,900 -1,260 Descending Houston Center
12:15PM 26.4822 -97.6436 230° Southwest 249 287 4,400 -1,500 Descending Houston Center
12:15PM 26.4414 -97.6572 197° South 230 265 3,400 -1,440 Descending Houston Center
12:16PM 26.4122 -97.6567 179° South 240 276 2,900 -1,140 Descending Houston Center
12:16PM 26.3783 -97.6564 180° South 217 250 2,300 -1,020 Descending Houston Center
12:17PM 26.3517 -97.6569 181° South 212 244 1,900 -540 Descending Houston Center
12:17PM 26.3281 -97.6583 183° South 198 228 1,800 -600 Descending Houston Center
12:18PM 26.3019 -97.6586 181° South 172 198 1,300 -780 Descending Houston Center
12:18PM 26.2839 -97.6597 183° South 117 135 1,000 -720 Descending Houston Center
12:19PM 26.2669 -97.6589 177° South 131 151 600 -660 Descending Houston Center
12:19PM 26.2522 -97.6592 181° South 122 140 400 -540 Descending Houston Center
12:20PM 26.2286 -97.6583 178° South 131 151 100 -540 Descending Houston Center
12:22PM 26.2271 -97.6551 North  Level Estimated